Airport View

Enter AWOS ICAO identifier for current METAR.

ex. KFNL

K2P2 250228Z AUTO 00000KT 10SM BKN100 BKN120 12/12 A2990 RMK AO2 T01170116

25 May 2020 02:29

Frequency: 118.525

Phone: 920 847 3024

Other Area AWOS: K3D2 - KESC - KMNM - KSUE

TAF KSAW 242341Z 2500/2524 15005KT P6SM SCT120 FM250600 19005KT 5SM BR BKN100 FM250900 20005KT 3SM BR VCSH BKN019 FM251300 19006KT P6SM SCT035